sensor_id;sensor_type;location;lat;lon;timestamp;P1;durP1;ratioP1;P2;durP2;ratioP2
37785;SDS011;23625;48.784;9.336;2022-07-05T00:00:47;4.72;;;2.13;;
37785;SDS011;23625;48.784;9.336;2022-07-05T00:03:13;6.53;;;2.25;;
37785;SDS011;23625;48.784;9.336;2022-07-05T00:05:39;5.43;;;2.50;;
37785;SDS011;23625;48.784;9.336;2022-07-05T00:08:05;4.60;;;2.03;;
37785;SDS011;23625;48.784;9.336;2022-07-05T00:10:32;6.32;;;2.25;;
37785;SDS011;23625;48.784;9.336;2022-07-05T00:12:58;8.35;;;2.72;;
37785;SDS011;23625;48.784;9.336;2022-07-05T00:15:24;8.07;;;2.80;;
37785;SDS011;23625;48.784;9.336;2022-07-05T00:17:50;6.28;;;2.35;;
37785;SDS011;23625;48.784;9.336;2022-07-05T00:20:15;7.88;;;2.30;;
37785;SDS011;23625;48.784;9.336;2022-07-05T00:22:41;5.63;;;2.45;;
37785;SDS011;23625;48.784;9.336;2022-07-05T00:25:07;7.53;;;2.38;;
37785;SDS011;23625;48.784;9.336;2022-07-05T00:27:33;4.22;;;2.40;;
37785;SDS011;23625;48.784;9.336;2022-07-05T00:29:59;2.95;;;2.60;;
37785;SDS011;23625;48.784;9.336;2022-07-05T00:32:24;4.10;;;2.88;;
37785;SDS011;23625;48.784;9.336;2022-07-05T00:34:50;3.28;;;2.67;;
37785;SDS011;23625;48.784;9.336;2022-07-05T00:37:16;3.28;;;2.45;;
37785;SDS011;23625;48.784;9.336;2022-07-05T00:39:42;4.18;;;2.47;;
37785;SDS011;23625;48.784;9.336;2022-07-05T00:42:08;4.07;;;2.63;;
37785;SDS011;23625;48.784;9.336;2022-07-05T00:44:34;5.53;;;2.90;;
37785;SDS011;23625;48.784;9.336;2022-07-05T00:47:02;7.53;;;2.53;;
37785;SDS011;23625;48.784;9.336;2022-07-05T00:49:29;4.25;;;2.67;;
37785;SDS011;23625;48.784;9.336;2022-07-05T00:51:56;5.38;;;3.30;;
37785;SDS011;23625;48.784;9.336;2022-07-05T00:54:23;6.60;;;2.78;;
37785;SDS011;23625;48.784;9.336;2022-07-05T00:56:48;6.40;;;2.33;;
37785;SDS011;23625;48.784;9.336;2022-07-05T00:59:14;2.60;;;2.40;;
37785;SDS011;23625;48.784;9.336;2022-07-05T01:01:40;6.13;;;3.13;;
37785;SDS011;23625;48.784;9.336;2022-07-05T01:04:05;5.05;;;2.88;;
37785;SDS011;23625;48.784;9.336;2022-07-05T01:06:31;6.35;;;2.40;;
37785;SDS011;23625;48.784;9.336;2022-07-05T01:08:57;4.25;;;2.80;;
37785;SDS011;23625;48.784;9.336;2022-07-05T01:11:23;6.97;;;2.90;;
37785;SDS011;23625;48.784;9.336;2022-07-05T01:13:49;5.90;;;2.95;;
37785;SDS011;23625;48.784;9.336;2022-07-05T01:16:14;5.93;;;3.22;;
37785;SDS011;23625;48.784;9.336;2022-07-05T01:18:41;5.65;;;2.72;;
37785;SDS011;23625;48.784;9.336;2022-07-05T01:21:07;11.20;;;2.90;;
37785;SDS011;23625;48.784;9.336;2022-07-05T01:23:36;7.00;;;2.75;;
37785;SDS011;23625;48.784;9.336;2022-07-05T01:26:02;8.95;;;2.90;;
37785;SDS011;23625;48.784;9.336;2022-07-05T01:28:28;7.57;;;2.63;;
37785;SDS011;23625;48.784;9.336;2022-07-05T01:30:54;4.30;;;2.40;;
37785;SDS011;23625;48.784;9.336;2022-07-05T01:33:26;5.53;;;3.00;;
37785;SDS011;23625;48.784;9.336;2022-07-05T01:35:55;8.40;;;2.38;;
37785;SDS011;23625;48.784;9.336;2022-07-05T01:38:22;4.15;;;3.15;;
37785;SDS011;23625;48.784;9.336;2022-07-05T01:40:48;7.93;;;2.92;;
37785;SDS011;23625;48.784;9.336;2022-07-05T01:43:20;7.57;;;3.05;;
37785;SDS011;23625;48.784;9.336;2022-07-05T01:45:47;5.20;;;2.75;;
37785;SDS011;23625;48.784;9.336;2022-07-05T01:48:15;4.82;;;2.70;;
37785;SDS011;23625;48.784;9.336;2022-07-05T01:53:18;6.35;;;3.08;;
37785;SDS011;23625;48.784;9.336;2022-07-05T01:55:48;4.95;;;3.20;;
37785;SDS011;23625;48.784;9.336;2022-07-05T01:58:14;4.43;;;3.08;;
37785;SDS011;23625;48.784;9.336;2022-07-05T02:00:44;3.75;;;2.47;;
37785;SDS011;23625;48.784;9.336;2022-07-05T02:03:11;3.35;;;2.80;;
37785;SDS011;23625;48.784;9.336;2022-07-05T02:05:38;6.25;;;3.17;;
37785;SDS011;23625;48.784;9.336;2022-07-05T02:08:04;4.22;;;2.65;;
37785;SDS011;23625;48.784;9.336;2022-07-05T02:10:29;6.47;;;3.22;;
37785;SDS011;23625;48.784;9.336;2022-07-05T02:12:55;3.50;;;3.17;;
37785;SDS011;23625;48.784;9.336;2022-07-05T02:15:20;6.57;;;3.22;;
37785;SDS011;23625;48.784;9.336;2022-07-05T02:17:46;8.05;;;2.83;;
37785;SDS011;23625;48.784;9.336;2022-07-05T02:20:12;3.50;;;2.60;;
37785;SDS011;23625;48.784;9.336;2022-07-05T02:22:37;4.20;;;2.75;;
37785;SDS011;23625;48.784;9.336;2022-07-05T02:25:03;7.38;;;3.08;;
37785;SDS011;23625;48.784;9.336;2022-07-05T02:27:29;4.15;;;3.00;;
37785;SDS011;23625;48.784;9.336;2022-07-05T02:29:55;6.18;;;2.65;;
37785;SDS011;23625;48.784;9.336;2022-07-05T02:32:20;5.63;;;3.22;;
37785;SDS011;23625;48.784;9.336;2022-07-05T02:34:46;4.20;;;2.95;;
37785;SDS011;23625;48.784;9.336;2022-07-05T02:37:11;4.25;;;3.03;;
37785;SDS011;23625;48.784;9.336;2022-07-05T02:39:37;6.57;;;3.20;;
37785;SDS011;23625;48.784;9.336;2022-07-05T02:42:03;6.82;;;3.10;;
37785;SDS011;23625;48.784;9.336;2022-07-05T02:44:28;5.28;;;3.08;;
37785;SDS011;23625;48.784;9.336;2022-07-05T02:46:54;7.57;;;3.47;;
37785;SDS011;23625;48.784;9.336;2022-07-05T02:49:20;7.03;;;3.50;;
37785;SDS011;23625;48.784;9.336;2022-07-05T02:51:45;6.32;;;3.53;;
37785;SDS011;23625;48.784;9.336;2022-07-05T02:54:11;7.85;;;3.60;;
37785;SDS011;23625;48.784;9.336;2022-07-05T02:56:36;4.20;;;3.13;;
37785;SDS011;23625;48.784;9.336;2022-07-05T02:59:02;3.75;;;3.28;;
37785;SDS011;23625;48.784;9.336;2022-07-05T03:01:28;4.90;;;3.25;;
37785;SDS011;23625;48.784;9.336;2022-07-05T03:03:54;4.70;;;3.40;;
37785;SDS011;23625;48.784;9.336;2022-07-05T03:06:19;4.40;;;3.08;;
37785;SDS011;23625;48.784;9.336;2022-07-05T03:08:45;4.53;;;3.05;;
37785;SDS011;23625;48.784;9.336;2022-07-05T03:11:10;10.48;;;3.83;;
37785;SDS011;23625;48.784;9.336;2022-07-05T03:13:36;7.70;;;4.00;;
37785;SDS011;23625;48.784;9.336;2022-07-05T03:16:01;8.15;;;3.92;;
37785;SDS011;23625;48.784;9.336;2022-07-05T03:18:27;6.18;;;3.72;;
37785;SDS011;23625;48.784;9.336;2022-07-05T03:20:53;7.10;;;3.75;;
37785;SDS011;23625;48.784;9.336;2022-07-05T03:23:18;7.90;;;3.88;;
37785;SDS011;23625;48.784;9.336;2022-07-05T03:25:44;8.27;;;4.00;;
37785;SDS011;23625;48.784;9.336;2022-07-05T03:28:09;7.22;;;3.70;;
37785;SDS011;23625;48.784;9.336;2022-07-05T03:30:35;8.55;;;3.95;;
37785;SDS011;23625;48.784;9.336;2022-07-05T03:33:01;9.77;;;3.92;;
37785;SDS011;23625;48.784;9.336;2022-07-05T03:35:27;5.15;;;3.10;;
37785;SDS011;23625;48.784;9.336;2022-07-05T03:37:53;5.85;;;3.97;;
37785;SDS011;23625;48.784;9.336;2022-07-05T03:40:18;6.45;;;3.55;;
37785;SDS011;23625;48.784;9.336;2022-07-05T03:42:45;9.15;;;3.63;;
37785;SDS011;23625;48.784;9.336;2022-07-05T03:45:10;6.70;;;3.55;;
37785;SDS011;23625;48.784;9.336;2022-07-05T03:47:36;9.05;;;3.65;;
37785;SDS011;23625;48.784;9.336;2022-07-05T03:50:03;5.15;;;3.30;;
37785;SDS011;23625;48.784;9.336;2022-07-05T03:52:29;8.77;;;3.92;;
37785;SDS011;23625;48.784;9.336;2022-07-05T03:54:54;5.15;;;3.53;;
37785;SDS011;23625;48.784;9.336;2022-07-05T03:57:21;8.82;;;4.10;;
37785;SDS011;23625;48.784;9.336;2022-07-05T03:59:46;7.25;;;3.38;;
37785;SDS011;23625;48.784;9.336;2022-07-05T04:02:12;5.28;;;3.63;;
37785;SDS011;23625;48.784;9.336;2022-07-05T04:04:38;7.82;;;4.25;;
37785;SDS011;23625;48.784;9.336;2022-07-05T04:07:03;7.10;;;3.83;;
37785;SDS011;23625;48.784;9.336;2022-07-05T04:09:29;6.80;;;3.83;;
37785;SDS011;23625;48.784;9.336;2022-07-05T04:11:55;6.25;;;3.47;;
37785;SDS011;23625;48.784;9.336;2022-07-05T04:14:20;5.78;;;4.05;;
37785;SDS011;23625;48.784;9.336;2022-07-05T04:16:46;9.75;;;4.50;;
37785;SDS011;23625;48.784;9.336;2022-07-05T04:19:11;7.35;;;4.38;;
37785;SDS011;23625;48.784;9.336;2022-07-05T04:21:37;8.93;;;4.00;;
37785;SDS011;23625;48.784;9.336;2022-07-05T04:24:03;12.02;;;4.43;;
37785;SDS011;23625;48.784;9.336;2022-07-05T04:26:29;5.32;;;3.95;;
37785;SDS011;23625;48.784;9.336;2022-07-05T04:28:54;6.05;;;3.83;;
37785;SDS011;23625;48.784;9.336;2022-07-05T04:31:20;6.82;;;4.07;;
37785;SDS011;23625;48.784;9.336;2022-07-05T04:33:45;7.95;;;3.95;;
37785;SDS011;23625;48.784;9.336;2022-07-05T04:36:11;7.95;;;3.90;;
37785;SDS011;23625;48.784;9.336;2022-07-05T04:38:37;6.93;;;4.00;;
37785;SDS011;23625;48.784;9.336;2022-07-05T04:41:02;8.00;;;3.92;;
37785;SDS011;23625;48.784;9.336;2022-07-05T04:43:28;7.97;;;3.53;;
37785;SDS011;23625;48.784;9.336;2022-07-05T04:45:53;7.97;;;3.83;;
37785;SDS011;23625;48.784;9.336;2022-07-05T04:48:19;6.88;;;3.90;;
37785;SDS011;23625;48.784;9.336;2022-07-05T04:50:45;7.75;;;3.55;;
37785;SDS011;23625;48.784;9.336;2022-07-05T04:53:10;6.85;;;4.32;;
37785;SDS011;23625;48.784;9.336;2022-07-05T04:55:36;9.38;;;4.03;;
37785;SDS011;23625;48.784;9.336;2022-07-05T04:58:01;10.07;;;4.10;;
37785;SDS011;23625;48.784;9.336;2022-07-05T05:00:27;4.53;;;3.53;;
37785;SDS011;23625;48.784;9.336;2022-07-05T05:02:53;6.20;;;3.90;;
37785;SDS011;23625;48.784;9.336;2022-07-05T05:05:18;10.88;;;4.00;;
37785;SDS011;23625;48.784;9.336;2022-07-05T05:07:44;9.05;;;4.40;;
37785;SDS011;23625;48.784;9.336;2022-07-05T05:10:10;9.25;;;4.50;;
37785;SDS011;23625;48.784;9.336;2022-07-05T05:12:37;10.30;;;3.70;;
37785;SDS011;23625;48.784;9.336;2022-07-05T05:15:02;9.13;;;4.63;;
37785;SDS011;23625;48.784;9.336;2022-07-05T05:17:37;4.88;;;3.85;;
37785;SDS011;23625;48.784;9.336;2022-07-05T05:20:05;8.65;;;5.18;;
37785;SDS011;23625;48.784;9.336;2022-07-05T05:22:32;7.65;;;5.07;;
37785;SDS011;23625;48.784;9.336;2022-07-05T05:24:57;7.60;;;4.90;;
37785;SDS011;23625;48.784;9.336;2022-07-05T05:27:23;7.50;;;5.20;;
37785;SDS011;23625;48.784;9.336;2022-07-05T05:29:49;9.48;;;4.97;;
37785;SDS011;23625;48.784;9.336;2022-07-05T05:32:14;6.75;;;4.65;;
37785;SDS011;23625;48.784;9.336;2022-07-05T05:34:40;9.95;;;4.88;;
37785;SDS011;23625;48.784;9.336;2022-07-05T05:37:05;8.82;;;4.53;;
37785;SDS011;23625;48.784;9.336;2022-07-05T05:39:31;11.20;;;5.00;;
37785;SDS011;23625;48.784;9.336;2022-07-05T05:41:56;14.13;;;5.40;;
37785;SDS011;23625;48.784;9.336;2022-07-05T05:44:22;12.18;;;4.75;;
37785;SDS011;23625;48.784;9.336;2022-07-05T05:46:48;9.55;;;4.55;;
37785;SDS011;23625;48.784;9.336;2022-07-05T05:49:13;8.90;;;5.10;;
37785;SDS011;23625;48.784;9.336;2022-07-05T05:51:39;10.40;;;4.85;;
37785;SDS011;23625;48.784;9.336;2022-07-05T05:54:04;7.63;;;4.28;;
37785;SDS011;23625;48.784;9.336;2022-07-05T05:56:30;8.82;;;4.28;;
37785;SDS011;23625;48.784;9.336;2022-07-05T05:58:56;9.68;;;5.28;;
37785;SDS011;23625;48.784;9.336;2022-07-05T06:01:21;9.43;;;4.68;;
37785;SDS011;23625;48.784;9.336;2022-07-05T06:03:47;12.20;;;5.03;;
37785;SDS011;23625;48.784;9.336;2022-07-05T06:06:12;11.68;;;5.22;;
37785;SDS011;23625;48.784;9.336;2022-07-05T06:08:38;8.60;;;4.22;;
37785;SDS011;23625;48.784;9.336;2022-07-05T06:11:03;8.63;;;4.38;;
37785;SDS011;23625;48.784;9.336;2022-07-05T06:13:30;7.65;;;4.60;;
37785;SDS011;23625;48.784;9.336;2022-07-05T06:15:55;8.95;;;4.50;;
37785;SDS011;23625;48.784;9.336;2022-07-05T06:18:21;7.47;;;4.25;;
37785;SDS011;23625;48.784;9.336;2022-07-05T06:20:47;10.25;;;3.78;;
37785;SDS011;23625;48.784;9.336;2022-07-05T06:23:13;6.88;;;3.80;;
37785;SDS011;23625;48.784;9.336;2022-07-05T06:25:38;12.27;;;4.38;;
37785;SDS011;23625;48.784;9.336;2022-07-05T06:28:06;5.57;;;3.53;;
37785;SDS011;23625;48.784;9.336;2022-07-05T06:30:34;8.82;;;3.85;;
37785;SDS011;23625;48.784;9.336;2022-07-05T06:33:01;6.38;;;3.17;;
37785;SDS011;23625;48.784;9.336;2022-07-05T06:35:26;15.70;;;4.25;;
37785;SDS011;23625;48.784;9.336;2022-07-05T06:37:59;8.15;;;3.78;;
37785;SDS011;23625;48.784;9.336;2022-07-05T06:40:37;9.68;;;3.67;;
37785;SDS011;23625;48.784;9.336;2022-07-05T06:43:06;3.53;;;2.80;;
37785;SDS011;23625;48.784;9.336;2022-07-05T06:45:33;9.90;;;3.15;;
37785;SDS011;23625;48.784;9.336;2022-07-05T06:48:00;8.05;;;3.58;;
37785;SDS011;23625;48.784;9.336;2022-07-05T06:50:28;6.28;;;2.85;;
37785;SDS011;23625;48.784;9.336;2022-07-05T06:52:55;8.50;;;2.50;;
37785;SDS011;23625;48.784;9.336;2022-07-05T06:55:21;5.05;;;2.42;;
37785;SDS011;23625;48.784;9.336;2022-07-05T06:57:48;7.72;;;2.65;;
37785;SDS011;23625;48.784;9.336;2022-07-05T07:00:14;4.20;;;2.10;;
37785;SDS011;23625;48.784;9.336;2022-07-05T07:02:40;7.50;;;2.80;;
37785;SDS011;23625;48.784;9.336;2022-07-05T07:05:06;7.20;;;2.70;;
37785;SDS011;23625;48.784;9.336;2022-07-05T07:07:33;8.82;;;2.35;;
37785;SDS011;23625;48.784;9.336;2022-07-05T07:10:17;4.93;;;2.55;;
37785;SDS011;23625;48.784;9.336;2022-07-05T07:12:43;7.95;;;2.60;;
37785;SDS011;23625;48.784;9.336;2022-07-05T07:15:08;5.93;;;2.17;;
37785;SDS011;23625;48.784;9.336;2022-07-05T07:17:34;5.60;;;2.30;;
37785;SDS011;23625;48.784;9.336;2022-07-05T07:20:00;4.82;;;2.03;;
37785;SDS011;23625;48.784;9.336;2022-07-05T07:22:26;8.00;;;1.75;;
37785;SDS011;23625;48.784;9.336;2022-07-05T07:24:52;5.68;;;1.98;;
37785;SDS011;23625;48.784;9.336;2022-07-05T07:27:18;5.88;;;2.15;;
37785;SDS011;23625;48.784;9.336;2022-07-05T07:29:44;3.53;;;1.52;;
37785;SDS011;23625;48.784;9.336;2022-07-05T07:32:09;3.65;;;1.40;;
37785;SDS011;23625;48.784;9.336;2022-07-05T07:34:35;7.53;;;1.85;;
37785;SDS011;23625;48.784;9.336;2022-07-05T07:37:04;11.65;;;2.00;;
37785;SDS011;23625;48.784;9.336;2022-07-05T07:39:30;2.95;;;1.52;;
37785;SDS011;23625;48.784;9.336;2022-07-05T07:41:57;2.08;;;1.20;;
37785;SDS011;23625;48.784;9.336;2022-07-05T07:44:23;4.45;;;1.55;;
37785;SDS011;23625;48.784;9.336;2022-07-05T07:46:49;2.72;;;1.48;;
37785;SDS011;23625;48.784;9.336;2022-07-05T07:49:15;3.22;;;1.27;;
37785;SDS011;23625;48.784;9.336;2022-07-05T07:51:41;2.78;;;1.08;;
37785;SDS011;23625;48.784;9.336;2022-07-05T07:54:07;4.82;;;1.30;;
37785;SDS011;23625;48.784;9.336;2022-07-05T07:56:32;2.97;;;1.50;;
37785;SDS011;23625;48.784;9.336;2022-07-05T07:58:58;4.15;;;1.52;;
37785;SDS011;23625;48.784;9.336;2022-07-05T08:01:23;3.22;;;1.58;;
37785;SDS011;23625;48.784;9.336;2022-07-05T08:03:49;3.88;;;1.40;;
37785;SDS011;23625;48.784;9.336;2022-07-05T08:06:15;3.75;;;1.27;;
37785;SDS011;23625;48.784;9.336;2022-07-05T08:08:41;4.68;;;1.70;;
37785;SDS011;23625;48.784;9.336;2022-07-05T08:11:09;4.30;;;1.15;;
37785;SDS011;23625;48.784;9.336;2022-07-05T08:13:35;3.90;;;1.60;;
37785;SDS011;23625;48.784;9.336;2022-07-05T08:16:01;2.45;;;1.08;;
37785;SDS011;23625;48.784;9.336;2022-07-05T08:18:27;7.53;;;1.27;;
37785;SDS011;23625;48.784;9.336;2022-07-05T08:21:11;7.95;;;1.60;;
37785;SDS011;23625;48.784;9.336;2022-07-05T08:23:56;5.13;;;1.33;;
37785;SDS011;23625;48.784;9.336;2022-07-05T08:26:22;4.82;;;1.65;;
37785;SDS011;23625;48.784;9.336;2022-07-05T08:28:48;12.73;;;2.10;;
37785;SDS011;23625;48.784;9.336;2022-07-05T08:31:14;3.13;;;1.48;;
37785;SDS011;23625;48.784;9.336;2022-07-05T08:33:39;6.07;;;1.73;;
37785;SDS011;23625;48.784;9.336;2022-07-05T08:36:05;2.67;;;1.45;;
37785;SDS011;23625;48.784;9.336;2022-07-05T08:38:31;5.72;;;1.92;;
37785;SDS011;23625;48.784;9.336;2022-07-05T08:40:56;4.47;;;1.58;;
37785;SDS011;23625;48.784;9.336;2022-07-05T08:43:23;6.63;;;2.05;;
37785;SDS011;23625;48.784;9.336;2022-07-05T08:45:49;6.63;;;1.70;;
37785;SDS011;23625;48.784;9.336;2022-07-05T08:48:17;3.97;;;1.50;;
37785;SDS011;23625;48.784;9.336;2022-07-05T08:50:45;3.50;;;1.50;;
37785;SDS011;23625;48.784;9.336;2022-07-05T08:53:16;3.13;;;1.60;;
37785;SDS011;23625;48.784;9.336;2022-07-05T08:55:44;4.93;;;1.67;;
37785;SDS011;23625;48.784;9.336;2022-07-05T08:58:11;4.95;;;1.20;;
37785;SDS011;23625;48.784;9.336;2022-07-05T09:00:40;2.75;;;1.40;;
37785;SDS011;23625;48.784;9.336;2022-07-05T09:03:07;2.38;;;1.20;;
37785;SDS011;23625;48.784;9.336;2022-07-05T09:05:39;5.05;;;1.48;;
37785;SDS011;23625;48.784;9.336;2022-07-05T09:08:13;1.83;;;1.40;;
37785;SDS011;23625;48.784;9.336;2022-07-05T09:10:40;7.32;;;1.33;;
37785;SDS011;23625;48.784;9.336;2022-07-05T09:13:08;6.75;;;1.75;;
37785;SDS011;23625;48.784;9.336;2022-07-05T09:15:33;2.33;;;1.25;;
37785;SDS011;23625;48.784;9.336;2022-07-05T09:18:02;2.55;;;1.58;;
37785;SDS011;23625;48.784;9.336;2022-07-05T09:20:28;5.18;;;1.42;;
37785;SDS011;23625;48.784;9.336;2022-07-05T09:22:54;5.43;;;1.30;;
37785;SDS011;23625;48.784;9.336;2022-07-05T09:25:24;13.98;;;1.52;;
37785;SDS011;23625;48.784;9.336;2022-07-05T09:33:13;2.40;;;1.23;;
37785;SDS011;23625;48.784;9.336;2022-07-05T09:35:41;8.85;;;1.40;;
37785;SDS011;23625;48.784;9.336;2022-07-05T09:38:21;2.75;;;1.20;;
37785;SDS011;23625;48.784;9.336;2022-07-05T09:43:26;2.92;;;1.10;;
37785;SDS011;23625;48.784;9.336;2022-07-05T09:48:21;1.52;;;0.77;;
37785;SDS011;23625;48.784;9.336;2022-07-05T09:50:48;8.00;;;1.35;;
37785;SDS011;23625;48.784;9.336;2022-07-05T09:53:20;4.93;;;0.77;;
37785;SDS011;23625;48.784;9.336;2022-07-05T09:56:01;4.85;;;0.65;;
37785;SDS011;23625;48.784;9.336;2022-07-05T09:58:27;1.88;;;0.93;;
37785;SDS011;23625;48.784;9.336;2022-07-05T10:00:54;6.03;;;0.90;;
37785;SDS011;23625;48.784;9.336;2022-07-05T10:03:19;4.82;;;0.93;;
37785;SDS011;23625;48.784;9.336;2022-07-05T10:05:45;7.35;;;1.55;;
37785;SDS011;23625;48.784;9.336;2022-07-05T10:08:11;4.32;;;0.73;;
37785;SDS011;23625;48.784;9.336;2022-07-05T10:10:38;4.40;;;1.23;;
37785;SDS011;23625;48.784;9.336;2022-07-05T10:13:05;4.80;;;1.13;;
37785;SDS011;23625;48.784;9.336;2022-07-05T10:15:35;9.90;;;1.27;;
37785;SDS011;23625;48.784;9.336;2022-07-05T10:18:08;4.00;;;1.00;;
37785;SDS011;23625;48.784;9.336;2022-07-05T10:23:06;9.75;;;1.42;;
37785;SDS011;23625;48.784;9.336;2022-07-05T10:25:34;3.55;;;0.80;;
37785;SDS011;23625;48.784;9.336;2022-07-05T10:28:01;3.75;;;1.13;;
37785;SDS011;23625;48.784;9.336;2022-07-05T10:30:28;2.88;;;0.80;;
37785;SDS011;23625;48.784;9.336;2022-07-05T10:32:55;3.22;;;0.98;;
37785;SDS011;23625;48.784;9.336;2022-07-05T10:35:21;1.67;;;0.95;;
37785;SDS011;23625;48.784;9.336;2022-07-05T10:37:47;10.60;;;1.17;;
37785;SDS011;23625;48.784;9.336;2022-07-05T10:40:14;1.85;;;0.82;;
37785;SDS011;23625;48.784;9.336;2022-07-05T10:42:42;2.22;;;1.00;;
37785;SDS011;23625;48.784;9.336;2022-07-05T10:48:21;4.50;;;0.90;;
37785;SDS011;23625;48.784;9.336;2022-07-05T10:58:20;0.90;;;0.82;;
37785;SDS011;23625;48.784;9.336;2022-07-05T11:00:48;4.70;;;0.85;;
37785;SDS011;23625;48.784;9.336;2022-07-05T11:03:37;1.70;;;0.70;;
37785;SDS011;23625;48.784;9.336;2022-07-05T11:06:05;1.50;;;0.80;;
37785;SDS011;23625;48.784;9.336;2022-07-05T11:11:34;0.70;;;0.50;;
37785;SDS011;23625;48.784;9.336;2022-07-05T11:14:02;2.28;;;0.73;;
37785;SDS011;23625;48.784;9.336;2022-07-05T11:16:30;4.50;;;0.77;;
37785;SDS011;23625;48.784;9.336;2022-07-05T11:19:05;2.03;;;0.70;;
37785;SDS011;23625;48.784;9.336;2022-07-05T11:21:32;1.67;;;0.60;;
37785;SDS011;23625;48.784;9.336;2022-07-05T11:26:48;7.53;;;0.80;;
37785;SDS011;23625;48.784;9.336;2022-07-05T11:32:05;0.60;;;0.60;;
37785;SDS011;23625;48.784;9.336;2022-07-05T11:34:35;5.28;;;1.67;;
37785;SDS011;23625;48.784;9.336;2022-07-05T11:39:39;5.72;;;1.20;;
37785;SDS011;23625;48.784;9.336;2022-07-05T11:42:08;6.85;;;1.20;;
37785;SDS011;23625;48.784;9.336;2022-07-05T11:44:35;2.50;;;0.65;;
37785;SDS011;23625;48.784;9.336;2022-07-05T11:47:01;1.85;;;0.57;;
37785;SDS011;23625;48.784;9.336;2022-07-05T11:49:28;6.10;;;0.80;;
37785;SDS011;23625;48.784;9.336;2022-07-05T11:51:55;1.58;;;0.60;;
37785;SDS011;23625;48.784;9.336;2022-07-05T11:54:25;2.08;;;0.70;;
37785;SDS011;23625;48.784;9.336;2022-07-05T11:56:52;1.05;;;0.57;;
37785;SDS011;23625;48.784;9.336;2022-07-05T11:59:18;3.42;;;0.60;;
37785;SDS011;23625;48.784;9.336;2022-07-05T12:01:45;1.92;;;0.75;;
37785;SDS011;23625;48.784;9.336;2022-07-05T12:04:11;2.42;;;1.27;;
37785;SDS011;23625;48.784;9.336;2022-07-05T12:06:41;2.53;;;0.50;;
37785;SDS011;23625;48.784;9.336;2022-07-05T12:09:06;2.40;;;0.85;;
37785;SDS011;23625;48.784;9.336;2022-07-05T12:11:32;1.20;;;0.60;;
37785;SDS011;23625;48.784;9.336;2022-07-05T12:14:22;3.03;;;0.82;;
37785;SDS011;23625;48.784;9.336;2022-07-05T12:16:49;2.20;;;0.70;;
37785;SDS011;23625;48.784;9.336;2022-07-05T12:19:35;1.33;;;0.52;;
37785;SDS011;23625;48.784;9.336;2022-07-05T12:22:00;2.45;;;0.70;;
37785;SDS011;23625;48.784;9.336;2022-07-05T12:24:26;0.80;;;0.50;;
37785;SDS011;23625;48.784;9.336;2022-07-05T12:26:52;5.97;;;0.68;;
37785;SDS011;23625;48.784;9.336;2022-07-05T12:29:18;3.83;;;1.02;;
37785;SDS011;23625;48.784;9.336;2022-07-05T12:34:25;2.17;;;0.80;;
37785;SDS011;23625;48.784;9.336;2022-07-05T12:36:52;2.30;;;0.70;;
37785;SDS011;23625;48.784;9.336;2022-07-05T12:39:17;3.05;;;0.85;;
37785;SDS011;23625;48.784;9.336;2022-07-05T12:41:43;2.00;;;0.63;;
37785;SDS011;23625;48.784;9.336;2022-07-05T12:44:09;2.00;;;0.90;;
37785;SDS011;23625;48.784;9.336;2022-07-05T12:46:38;3.80;;;0.63;;
37785;SDS011;23625;48.784;9.336;2022-07-05T12:49:05;1.77;;;1.00;;
37785;SDS011;23625;48.784;9.336;2022-07-05T12:51:40;1.35;;;0.75;;
37785;SDS011;23625;48.784;9.336;2022-07-05T12:54:09;8.10;;;1.10;;
37785;SDS011;23625;48.784;9.336;2022-07-05T12:57:05;2.63;;;0.70;;
37785;SDS011;23625;48.784;9.336;2022-07-05T13:00:06;1.35;;;0.63;;
37785;SDS011;23625;48.784;9.336;2022-07-05T13:02:35;1.83;;;0.77;;
37785;SDS011;23625;48.784;9.336;2022-07-05T13:05:03;1.23;;;0.98;;
37785;SDS011;23625;48.784;9.336;2022-07-05T13:07:29;7.38;;;0.80;;
37785;SDS011;23625;48.784;9.336;2022-07-05T13:09:55;2.45;;;0.80;;
37785;SDS011;23625;48.784;9.336;2022-07-05T13:12:48;5.15;;;0.90;;
37785;SDS011;23625;48.784;9.336;2022-07-05T13:15:14;3.78;;;0.82;;
37785;SDS011;23625;48.784;9.336;2022-07-05T13:17:40;4.20;;;1.00;;
37785;SDS011;23625;48.784;9.336;2022-07-05T13:20:06;13.68;;;1.38;;
37785;SDS011;23625;48.784;9.336;2022-07-05T13:22:32;2.40;;;0.90;;
37785;SDS011;23625;48.784;9.336;2022-07-05T13:24:57;3.95;;;0.95;;
37785;SDS011;23625;48.784;9.336;2022-07-05T13:27:23;1.90;;;0.93;;
37785;SDS011;23625;48.784;9.336;2022-07-05T13:29:49;11.00;;;1.33;;
37785;SDS011;23625;48.784;9.336;2022-07-05T13:32:15;1.23;;;0.80;;
37785;SDS011;23625;48.784;9.336;2022-07-05T13:34:42;3.78;;;1.20;;
37785;SDS011;23625;48.784;9.336;2022-07-05T13:37:10;3.33;;;1.00;;
37785;SDS011;23625;48.784;9.336;2022-07-05T13:39:35;3.22;;;1.27;;
37785;SDS011;23625;48.784;9.336;2022-07-05T13:42:03;3.35;;;1.08;;
37785;SDS011;23625;48.784;9.336;2022-07-05T13:44:30;2.10;;;0.85;;
37785;SDS011;23625;48.784;9.336;2022-07-05T13:46:56;7.50;;;1.20;;
37785;SDS011;23625;48.784;9.336;2022-07-05T13:49:22;3.35;;;1.10;;
37785;SDS011;23625;48.784;9.336;2022-07-05T13:51:48;3.42;;;0.85;;
37785;SDS011;23625;48.784;9.336;2022-07-05T13:54:13;2.38;;;0.80;;
37785;SDS011;23625;48.784;9.336;2022-07-05T13:56:39;1.92;;;0.80;;
37785;SDS011;23625;48.784;9.336;2022-07-05T13:59:05;4.35;;;1.05;;
37785;SDS011;23625;48.784;9.336;2022-07-05T14:01:31;7.70;;;1.10;;
37785;SDS011;23625;48.784;9.336;2022-07-05T14:03:57;3.83;;;0.98;;
37785;SDS011;23625;48.784;9.336;2022-07-05T14:06:27;5.25;;;0.80;;
37785;SDS011;23625;48.784;9.336;2022-07-05T14:08:54;2.88;;;0.95;;
37785;SDS011;23625;48.784;9.336;2022-07-05T14:11:20;5.70;;;1.02;;
37785;SDS011;23625;48.784;9.336;2022-07-05T14:13:46;7.15;;;1.20;;
37785;SDS011;23625;48.784;9.336;2022-07-05T14:16:12;5.20;;;1.13;;
37785;SDS011;23625;48.784;9.336;2022-07-05T14:18:38;2.70;;;1.10;;
37785;SDS011;23625;48.784;9.336;2022-07-05T14:21:03;9.27;;;1.00;;
37785;SDS011;23625;48.784;9.336;2022-07-05T14:23:29;2.25;;;0.80;;
37785;SDS011;23625;48.784;9.336;2022-07-05T14:25:55;3.25;;;1.00;;
37785;SDS011;23625;48.784;9.336;2022-07-05T14:28:22;3.13;;;1.05;;
37785;SDS011;23625;48.784;9.336;2022-07-05T14:30:48;2.15;;;0.80;;
37785;SDS011;23625;48.784;9.336;2022-07-05T14:33:14;6.05;;;1.27;;
37785;SDS011;23625;48.784;9.336;2022-07-05T14:35:40;6.55;;;1.40;;
37785;SDS011;23625;48.784;9.336;2022-07-05T14:38:06;4.10;;;0.85;;
37785;SDS011;23625;48.784;9.336;2022-07-05T14:40:33;1.38;;;0.82;;
37785;SDS011;23625;48.784;9.336;2022-07-05T14:42:59;2.58;;;0.70;;
37785;SDS011;23625;48.784;9.336;2022-07-05T14:45:25;3.83;;;1.17;;
37785;SDS011;23625;48.784;9.336;2022-07-05T14:47:52;2.45;;;0.73;;
37785;SDS011;23625;48.784;9.336;2022-07-05T14:50:18;3.17;;;1.20;;
37785;SDS011;23625;48.784;9.336;2022-07-05T14:52:45;1.58;;;0.90;;
37785;SDS011;23625;48.784;9.336;2022-07-05T14:55:11;6.85;;;1.10;;
37785;SDS011;23625;48.784;9.336;2022-07-05T14:57:38;3.45;;;0.80;;
37785;SDS011;23625;48.784;9.336;2022-07-05T15:00:05;6.05;;;1.38;;
37785;SDS011;23625;48.784;9.336;2022-07-05T15:02:33;1.15;;;0.80;;
37785;SDS011;23625;48.784;9.336;2022-07-05T15:04:59;9.77;;;1.80;;
37785;SDS011;23625;48.784;9.336;2022-07-05T15:07:24;7.85;;;1.30;;
37785;SDS011;23625;48.784;9.336;2022-07-05T15:09:50;4.15;;;1.05;;
37785;SDS011;23625;48.784;9.336;2022-07-05T15:12:16;7.72;;;1.10;;
37785;SDS011;23625;48.784;9.336;2022-07-05T15:14:42;4.65;;;0.98;;
37785;SDS011;23625;48.784;9.336;2022-07-05T15:17:08;1.92;;;1.10;;
37785;SDS011;23625;48.784;9.336;2022-07-05T15:19:34;1.23;;;0.80;;
37785;SDS011;23625;48.784;9.336;2022-07-05T15:22:00;2.72;;;0.77;;
37785;SDS011;23625;48.784;9.336;2022-07-05T15:24:25;2.40;;;0.93;;
37785;SDS011;23625;48.784;9.336;2022-07-05T15:26:51;4.00;;;0.95;;